Weather at St. Mary's Hospital Heliport

Public forecast

Using degrees Fahrenheit for public forecast. Weather courtesy of forecast.io.

Closest aviation weather report (METAR) to St. Mary's Hospital Heliport

Closest report is Hanover County Municipal Airport, 8.9 nm (16.5 km) NNE. Retrieved 2021/01/17 23:54 UTC (46 minutes ago):

KOFP 172354Z AUTO 20005KT 10SM OVC070 07/M02 A2983 RMK AO2 SLP102 T00671022 10094 20067 53006

Closest aviation forecast (TAF) to St. Mary's Hospital Heliport

Closest forecast is Richmond International Airport, 9.6 nm (17.7 km) ESE. Retrieved 2021-01-18 00:28 UTC (12 minutes ago):

TAF KRIC 172326Z 1800/1824 22006KT P6SM BKN070 FM180300 22006KT P6SM SCT200 FM181500 26015G22KT P6SM SCT100